EFOU

Oulu Airport

Airport
ICAO code
EFOU
Summary
ICAO Region
EUR
ICAO Territory
Location

Oulu, Finland,

Elevation
302 ft
Coordinates
64° 55' 48" N , 25° 21' 16" E
KCC
Airport GND
Aircraft Ground De/Anti Icing
Airport RE
Landing on Contaminated Runways
Metar
Observation
EFOU 010250Z AUTO 17005KT 9999 -SHSN OVC006 M03/M03 Q1036
Station
Oulu
Date/Time
2022-12-01 02:50:00
Wind direction
170°
Wind speed
05 kts
Lowest cloud amount
overcast
Temperature
-3°C
Dew point
-3°C
Humidity
100%
QNH
1036 hPa
Weather condition
light showers snow

Description

Oulu Airport is located 5.7 nm southwest of the city of Oulu, in central Finland. The airfield is also used for training by the Finnish air force.

Climatology

Subarctic climate (Köppen climate classification Dfc) - long, usually very cold winters, and short, cool to mild summers.

Runways

Designator Length Width Surface Rops
12/30 2501 60 ASP Yes/Yes

Airport map

Aerial View

SKYbrary Partners:

Safety knowledge contributed by: